createdAt,value
2019-02-08T00:00:36.569Z,24.20
2019-02-08T00:03:08.595Z,25.40
2019-02-08T00:05:40.109Z,25.50
2019-02-08T00:08:11.602Z,24.67
2019-02-08T00:10:43.412Z,23.43
2019-02-08T00:13:14.904Z,22.03
2019-02-08T00:15:46.403Z,25.07
2019-02-08T00:18:17.869Z,22.63
2019-02-08T00:20:49.337Z,25.13
2019-02-08T00:23:26.745Z,23.47
2019-02-08T00:25:54.906Z,23.50
2019-02-08T00:28:26.333Z,23.40
2019-02-08T00:30:57.813Z,23.03
2019-02-08T00:33:29.236Z,24.70
2019-02-08T00:36:00.634Z,21.30
2019-02-08T00:38:32.162Z,23.07
2019-02-08T00:41:03.757Z,23.47
2019-02-08T00:43:35.166Z,21.80
2019-02-08T00:46:06.688Z,22.77
2019-02-08T00:48:38.148Z,23.00
2019-02-08T00:51:09.636Z,22.73
2019-02-08T00:53:42.115Z,24.27
2019-02-08T00:56:13.884Z,24.63
2019-02-08T00:58:45.310Z,25.23
2019-02-08T01:01:16.823Z,24.10
2019-02-08T01:03:48.534Z,24.57
2019-02-08T01:06:19.997Z,26.37
2019-02-08T01:08:51.414Z,26.67
2019-02-08T01:11:22.811Z,25.80
2019-02-08T01:13:54.216Z,26.10
2019-02-08T01:16:25.621Z,25.80
2019-02-08T01:18:57.208Z,25.43
2019-02-08T01:21:28.767Z,24.10
2019-02-08T01:24:00.308Z,26.87
2019-02-08T01:26:31.853Z,29.50
2019-02-08T01:29:03.347Z,27.87
2019-02-08T01:31:34.733Z,26.57
2019-02-08T01:34:06.375Z,25.73
2019-02-08T01:36:37.873Z,24.77
2019-02-08T01:39:09.642Z,24.07
2019-02-08T01:41:41.177Z,24.23
2019-02-08T01:44:12.639Z,24.57
2019-02-08T01:46:44.045Z,23.40
2019-02-08T01:49:15.453Z,23.23
2019-02-08T01:51:46.871Z,24.03
2019-02-08T01:54:18.364Z,23.83
2019-02-08T01:56:50.019Z,23.83
2019-02-08T01:59:21.521Z,22.33
2019-02-08T02:01:52.942Z,22.73
2019-02-08T02:04:24.401Z,23.50
2019-02-08T02:06:55.902Z,24.37
2019-02-08T02:09:27.512Z,27.67
2019-02-08T02:11:59.118Z,23.40
2019-02-08T02:14:30.984Z,30.50
2019-02-08T02:17:02.539Z,28.47
2019-02-08T02:19:34.008Z,31.30
2019-02-08T02:22:05.659Z,26.17
2019-02-08T02:24:37.152Z,29.67
2019-02-08T02:27:08.567Z,28.57
2019-02-08T02:29:40.097Z,24.83
2019-02-08T02:32:11.554Z,30.13
2019-02-08T02:34:43.058Z,25.80
2019-02-08T02:37:14.507Z,26.60
2019-02-08T02:39:45.961Z,22.80
2019-02-08T02:42:17.437Z,24.30
2019-02-08T02:44:48.942Z,23.70
2019-02-08T02:47:20.443Z,29.63
2019-02-08T02:49:51.935Z,28.37
2019-02-08T02:52:23.362Z,25.83
2019-02-08T02:54:54.983Z,24.23
2019-02-08T02:57:26.507Z,24.17
2019-02-08T02:59:58.020Z,23.90
2019-02-08T03:02:29.556Z,26.83
2019-02-08T03:05:01.051Z,29.07
2019-02-08T03:07:32.573Z,27.67
2019-02-08T03:10:05.665Z,28.93
2019-02-08T03:12:37.084Z,27.33
2019-02-08T03:15:09.733Z,27.33
2019-02-08T03:17:41.198Z,23.50
2019-02-08T03:20:15.880Z,25.83
2019-02-08T03:22:47.752Z,23.63
2019-02-08T03:25:21.201Z,25.60
2019-02-08T03:27:52.865Z,26.73
2019-02-08T03:30:44.466Z,26.73
2019-02-08T03:33:15.931Z,21.73
2019-02-08T03:35:48.453Z,23.90
2019-02-08T03:38:20.025Z,26.60
2019-02-08T03:40:51.533Z,23.87
2019-02-08T03:43:23.027Z,27.33
2019-02-08T03:45:54.518Z,24.37
2019-02-08T03:48:26.016Z,23.63
2019-02-08T03:50:57.485Z,24.90
2019-02-08T03:53:29.127Z,23.47
2019-02-08T03:56:01.491Z,26.43
2019-02-08T03:58:33.013Z,26.97
2019-02-08T04:01:06.337Z,25.80
2019-02-08T04:03:38.111Z,23.47
2019-02-08T04:06:09.532Z,25.33
2019-02-08T04:08:41.051Z,25.80
2019-02-08T04:11:12.508Z,24.97
2019-02-08T04:13:43.930Z,24.93
2019-02-08T04:16:15.373Z,28.00
2019-02-08T04:18:46.833Z,23.30
2019-02-08T04:21:18.289Z,25.70
2019-02-08T04:23:49.739Z,27.57
2019-02-08T04:26:21.186Z,28.17
2019-02-08T04:28:52.618Z,29.03
2019-02-08T04:31:24.040Z,29.03
2019-02-08T04:33:55.621Z,27.93
2019-02-08T04:36:27.017Z,27.70
2019-02-08T04:38:58.466Z,28.23
2019-02-08T04:41:29.873Z,24.00
2019-02-08T04:44:01.356Z,29.93
2019-02-08T04:46:32.770Z,30.17
2019-02-08T04:49:04.171Z,26.13
2019-02-08T04:51:35.571Z,24.70
2019-02-08T04:54:07.073Z,25.43
2019-02-08T04:56:38.509Z,25.47
2019-02-08T04:59:10.027Z,26.47
2019-02-08T05:01:41.524Z,24.07
2019-02-08T05:04:12.939Z,26.37
2019-02-08T05:06:44.363Z,29.73
2019-02-08T05:09:15.937Z,26.37
2019-02-08T05:11:47.420Z,26.43
2019-02-08T05:14:18.838Z,28.33
2019-02-08T05:16:50.243Z,27.63
2019-02-08T05:19:21.659Z,24.47
2019-02-08T05:21:53.093Z,24.13
2019-02-08T05:24:24.600Z,23.90
2019-02-08T05:26:56.034Z,23.67
2019-02-08T05:29:27.472Z,24.27
2019-02-08T05:31:59.033Z,24.23
2019-02-08T05:34:30.591Z,25.10
2019-02-08T05:37:02.029Z,25.90
2019-02-08T05:39:33.562Z,30.60
2019-02-08T05:42:05.072Z,25.40
2019-02-08T05:44:36.553Z,24.13
2019-02-08T05:47:08.094Z,22.23
2019-02-08T05:49:39.619Z,20.70
2019-02-08T05:52:11.324Z,21.63
2019-02-08T05:54:42.858Z,25.53
2019-02-08T05:57:14.326Z,22.83
2019-02-08T05:59:45.769Z,23.20
2019-02-08T06:02:17.288Z,21.97
2019-02-08T06:04:48.971Z,25.40
2019-02-08T06:07:20.548Z,20.17
2019-02-08T06:09:52.045Z,19.92
2019-02-08T06:12:23.539Z,22.37
2019-02-08T06:14:54.996Z,20.23
2019-02-08T06:17:26.509Z,17.73
2019-02-08T06:19:57.938Z,15.93
2019-02-08T06:22:29.339Z,15.33
2019-02-08T06:25:03.952Z,12.77
2019-02-08T06:27:34.294Z,16.30
2019-02-08T06:30:07.240Z,15.33
2019-02-08T06:32:38.681Z,15.17
2019-02-08T06:35:10.319Z,13.77
2019-02-08T06:37:44.317Z,12.03
2019-02-08T06:40:17.753Z,12.37
2019-02-08T06:42:49.399Z,12.70
2019-02-08T06:45:22.043Z,11.03
2019-02-08T06:47:54.393Z,11.30
2019-02-08T06:50:26.052Z,11.07
2019-02-08T06:52:58.187Z,12.90
2019-02-08T06:55:29.721Z,12.73
2019-02-08T06:58:20.069Z,12.30
2019-02-08T07:01:14.659Z,11.37
2019-02-08T07:04:23.060Z,12.20
2019-02-08T07:07:12.250Z,10.43
2019-02-08T07:10:05.535Z,10.43
2019-02-08T07:12:47.415Z,9.63
2019-02-08T07:15:40.883Z,9.43
2019-02-08T07:18:18.674Z,13.53
2019-02-08T07:21:18.687Z,10.57
2019-02-08T07:24:01.365Z,10.40
2019-02-08T07:26:56.357Z,8.70
2019-02-08T07:30:01.804Z,10.10
2019-02-08T07:33:01.116Z,10.70
2019-02-08T07:36:06.457Z,10.90
2019-02-08T07:39:08.635Z,10.80
2019-02-08T07:41:52.278Z,9.03
2019-02-08T07:44:31.122Z,9.70
2019-02-08T07:47:20.372Z,8.20
2019-02-08T07:50:10.733Z,8.57
2019-02-08T07:53:00.722Z,8.13
2019-02-08T07:55:41.898Z,8.67
2019-02-08T07:58:38.385Z,8.03
2019-02-08T08:01:34.743Z,7.30
2019-02-08T08:04:23.999Z,8.60
2019-02-08T08:07:08.498Z,7.90
2019-02-08T08:10:02.819Z,8.00
2019-02-08T08:12:52.587Z,8.33
2019-02-08T08:15:34.427Z,6.50
2019-02-08T08:18:16.389Z,7.50
2019-02-08T08:21:06.612Z,6.93
2019-02-08T08:23:44.990Z,7.40
2019-02-08T08:26:39.068Z,9.33
2019-02-08T08:29:28.257Z,9.23
2019-02-08T08:32:14.018Z,8.20
2019-02-08T08:35:05.257Z,9.47
2019-02-08T08:38:35.760Z,8.00
2019-02-08T08:41:58.816Z,8.10
2019-02-08T08:45:07.023Z,7.50
2019-02-08T08:48:11.633Z,7.10
2019-02-08T08:51:02.782Z,8.43
2019-02-08T08:54:21.179Z,8.40
2019-02-08T08:57:29.476Z,8.30
2019-02-08T09:00:38.115Z,6.70
2019-02-08T09:03:44.305Z,6.73
2019-02-08T09:06:41.849Z,7.67
2019-02-08T09:10:02.953Z,7.43
2019-02-08T09:13:22.772Z,6.93
2019-02-08T09:16:45.844Z,6.37
2019-02-08T09:20:06.972Z,7.00
2019-02-08T09:23:14.853Z,6.90
2019-02-08T09:26:28.650Z,7.23
2019-02-08T09:29:54.855Z,7.70
2019-02-08T09:33:17.556Z,6.90
2019-02-08T09:36:47.970Z,7.65
2019-02-08T09:39:55.977Z,7.13
2019-02-08T09:43:06.545Z,7.40
2019-02-08T09:46:15.434Z,7.00
2019-02-08T09:49:27.269Z,8.33
2019-02-08T09:52:45.423Z,9.50
2019-02-08T09:55:57.835Z,7.60
2019-02-08T09:59:12.446Z,7.20
2019-02-08T10:02:23.052Z,5.70
2019-02-08T10:05:29.975Z,6.62
2019-02-08T10:08:36.804Z,7.28
2019-02-08T10:12:03.920Z,6.37
2019-02-08T10:15:27.324Z,5.83
2019-02-08T10:18:35.519Z,5.53
2019-02-08T10:21:53.422Z,6.70
2019-02-08T10:24:59.701Z,5.87
2019-02-08T10:28:18.166Z,5.37
2019-02-08T10:31:17.209Z,6.15
2019-02-08T10:34:35.634Z,5.42
2019-02-08T10:38:09.138Z,6.03
2019-02-08T10:41:30.864Z,5.58
2019-02-08T10:44:57.537Z,5.60
2019-02-08T10:48:17.948Z,5.30
2019-02-08T10:51:28.824Z,5.47
2019-02-08T10:54:42.582Z,4.70
2019-02-08T10:58:07.169Z,5.03
2019-02-08T11:01:13.942Z,4.67
2019-02-08T11:04:40.327Z,3.70
2019-02-08T11:07:58.803Z,4.58
2019-02-08T11:11:06.158Z,4.62
2019-02-08T11:14:24.258Z,4.60
2019-02-08T11:17:38.580Z,3.75
2019-02-08T11:20:10.380Z,3.75
2019-02-08T11:22:41.911Z,3.75
2019-02-08T11:25:13.647Z,4.10
2019-02-08T11:27:45.068Z,3.85
2019-02-08T11:30:17.503Z,3.95
2019-02-08T11:32:49.057Z,3.98
2019-02-08T11:35:21.450Z,3.98
2019-02-08T11:37:52.889Z,3.62
2019-02-08T11:40:27.048Z,3.75
2019-02-08T11:42:58.492Z,3.22
2019-02-08T11:45:30.148Z,3.47
2019-02-08T11:48:01.578Z,3.40
2019-02-08T11:50:32.985Z,3.65
2019-02-08T11:53:04.692Z,3.27
2019-02-08T11:55:36.424Z,3.20
2019-02-08T11:58:08.142Z,2.87
2019-02-08T12:00:44.639Z,3.02
2019-02-08T12:03:16.207Z,3.37
2019-02-08T12:05:48.681Z,3.27
2019-02-08T12:08:20.181Z,3.92
2019-02-08T12:10:52.225Z,3.22
2019-02-08T12:13:23.688Z,3.45
2019-02-08T12:15:55.168Z,3.67
2019-02-08T12:18:26.715Z,3.30
2019-02-08T12:20:58.130Z,3.17
2019-02-08T12:23:29.672Z,2.83
2019-02-08T12:26:01.101Z,3.52
2019-02-08T12:28:32.829Z,3.75
2019-02-08T12:31:04.523Z,2.52
2019-02-08T12:33:36.095Z,3.20
2019-02-08T12:36:07.674Z,3.00
2019-02-08T12:38:39.113Z,2.87
2019-02-08T12:41:10.525Z,2.50
2019-02-08T12:43:43.308Z,2.85
2019-02-08T12:46:14.773Z,2.70
2019-02-08T12:48:46.210Z,3.42
2019-02-08T12:51:17.601Z,2.98
2019-02-08T12:53:49.070Z,2.75
2019-02-08T12:56:20.483Z,2.75
2019-02-08T12:58:51.915Z,2.83
2019-02-08T13:01:23.370Z,2.20
2019-02-08T13:03:54.875Z,2.22
2019-02-08T13:06:26.328Z,1.80
2019-02-08T13:08:57.947Z,2.52
2019-02-08T13:11:29.340Z,1.87
2019-02-08T13:14:00.813Z,2.20
2019-02-08T13:16:32.246Z,5.67
2019-02-08T13:19:03.716Z,4.50
2019-02-08T13:21:35.203Z,2.67
2019-02-08T13:24:06.920Z,2.85
2019-02-08T13:26:38.303Z,2.30
2019-02-08T13:29:09.759Z,2.47
2019-02-08T13:31:41.190Z,2.50
2019-02-08T13:34:12.597Z,7.75
2019-02-08T13:36:43.960Z,8.55
2019-02-08T13:39:15.379Z,8.60
2019-02-08T13:41:46.976Z,8.68
2019-02-08T13:44:18.368Z,9.88
2019-02-08T13:46:49.779Z,9.28
2019-02-08T13:49:21.192Z,10.43
2019-02-08T13:51:52.600Z,9.73
2019-02-08T13:54:24.097Z,8.58
2019-02-08T13:57:00.508Z,8.40
2019-02-08T13:59:28.739Z,9.30
2019-02-08T14:02:00.247Z,7.92
2019-02-08T14:04:31.784Z,7.47
2019-02-08T14:07:03.228Z,8.80
2019-02-08T14:09:34.880Z,8.28
2019-02-08T14:12:15.361Z,8.33
2019-02-08T14:14:46.824Z,8.80
2019-02-08T14:17:18.271Z,8.20
2019-02-08T14:19:49.741Z,9.73
2019-02-08T14:22:21.164Z,8.78
2019-02-08T14:24:52.617Z,10.30
2019-02-08T14:27:24.104Z,10.23
2019-02-08T14:29:55.600Z,10.72
2019-02-08T14:32:27.051Z,10.60
2019-02-08T14:34:58.808Z,9.73
2019-02-08T14:37:30.368Z,9.23
2019-02-08T14:40:01.838Z,9.30
2019-02-08T14:42:34.323Z,9.63
2019-02-08T14:45:07.265Z,9.37
2019-02-08T14:47:38.660Z,8.87
2019-02-08T14:50:12.272Z,10.53
2019-02-08T14:52:44.051Z,10.40
2019-02-08T14:55:16.536Z,9.60
2019-02-08T14:57:48.221Z,10.70
2019-02-08T15:00:21.529Z,10.20
2019-02-08T15:02:53.031Z,8.20
2019-02-08T15:05:24.571Z,8.93
2019-02-08T15:07:57.625Z,10.63
2019-02-08T15:10:31.684Z,9.80
2019-02-08T15:13:03.236Z,8.77
2019-02-08T15:15:34.628Z,9.43
2019-02-08T15:18:06.642Z,9.33
2019-02-08T15:20:38.300Z,8.83
2019-02-08T15:23:09.699Z,10.50
2019-02-08T15:25:41.122Z,10.27
2019-02-08T15:28:12.638Z,10.80
2019-02-08T15:30:44.129Z,10.40
2019-02-08T15:33:15.679Z,9.73
2019-02-08T15:35:47.128Z,10.27
2019-02-08T15:38:18.572Z,10.00
2019-02-08T15:40:52.371Z,9.80
2019-02-08T15:43:24.494Z,10.33
2019-02-08T15:46:01.398Z,10.30
2019-02-08T15:48:32.971Z,9.10
2019-02-08T15:51:04.710Z,10.97
2019-02-08T15:53:36.166Z,10.97
2019-02-08T15:56:13.642Z,10.20
2019-02-08T15:58:45.018Z,10.53
2019-02-08T16:01:16.529Z,11.20
2019-02-08T16:03:47.920Z,10.50
2019-02-08T16:06:19.728Z,10.40
2019-02-08T16:08:51.176Z,10.57
2019-02-08T16:11:23.155Z,10.50
2019-02-08T16:13:54.631Z,11.18
2019-02-08T16:16:26.191Z,10.83
2019-02-08T16:18:57.762Z,11.93
2019-02-08T16:21:29.520Z,12.40
2019-02-08T16:24:01.059Z,12.67
2019-02-08T16:26:32.776Z,14.43
2019-02-08T16:29:04.694Z,13.90
2019-02-08T16:31:36.650Z,18.47
2019-02-08T16:34:08.208Z,20.07
2019-02-08T16:36:39.626Z,19.13
2019-02-08T16:39:11.549Z,20.37
2019-02-08T16:41:42.968Z,20.23
2019-02-08T16:44:14.488Z,20.57
2019-02-08T16:46:45.952Z,18.87
2019-02-08T16:49:17.368Z,23.77
2019-02-08T16:51:48.801Z,20.73
2019-02-08T16:54:20.215Z,21.03
2019-02-08T16:56:51.744Z,20.87
2019-02-08T16:59:23.288Z,21.87
2019-02-08T17:01:54.762Z,23.17
2019-02-08T17:04:26.173Z,22.77
2019-02-08T17:06:57.650Z,26.37
2019-02-08T17:09:29.084Z,24.23
2019-02-08T17:12:00.550Z,22.87
2019-02-08T17:14:33.176Z,23.47
2019-02-08T17:17:04.763Z,21.63
2019-02-08T17:19:36.174Z,22.20
2019-02-08T17:22:07.759Z,20.40
2019-02-08T17:24:39.223Z,21.47
2019-02-08T17:27:11.292Z,18.50
2019-02-08T17:29:42.723Z,19.40
2019-02-08T17:32:14.216Z,19.63
2019-02-08T17:34:45.668Z,18.90
2019-02-08T17:37:17.123Z,21.20
2019-02-08T17:39:48.580Z,24.05
2019-02-08T17:42:20.006Z,22.90
2019-02-08T17:44:51.665Z,20.77
2019-02-08T17:47:23.212Z,19.73
2019-02-08T17:49:54.643Z,21.20
2019-02-08T17:52:26.131Z,21.33
2019-02-08T17:54:57.573Z,21.47
2019-02-08T17:57:29.010Z,25.70
2019-02-08T18:00:00.456Z,21.93
2019-02-08T18:02:31.972Z,21.40
2019-02-08T18:05:03.372Z,22.70
2019-02-08T18:07:34.803Z,22.27
2019-02-08T18:10:07.362Z,22.20
2019-02-08T18:12:38.799Z,21.27
2019-02-08T18:15:12.041Z,19.93
2019-02-08T18:17:43.467Z,19.80
2019-02-08T18:20:18.535Z,18.87
2019-02-08T18:22:49.993Z,20.77
2019-02-08T18:25:21.680Z,22.23
2019-02-08T18:27:53.061Z,21.50
2019-02-08T18:30:24.678Z,20.67
2019-02-08T18:32:56.862Z,19.80
2019-02-08T18:35:28.280Z,18.80
2019-02-08T18:37:59.812Z,21.80
2019-02-08T18:40:31.262Z,20.57
2019-02-08T18:43:02.857Z,22.00
2019-02-08T18:45:34.527Z,20.97
2019-02-08T18:48:06.169Z,18.10
2019-02-08T18:50:40.241Z,19.70
2019-02-08T18:53:11.768Z,19.60
2019-02-08T18:55:43.265Z,21.67
2019-02-08T18:58:19.018Z,22.60
2019-02-08T19:00:49.114Z,21.93
2019-02-08T19:03:21.115Z,21.00
2019-02-08T19:05:52.600Z,18.70
2019-02-08T19:08:24.008Z,18.53
2019-02-08T19:10:55.404Z,17.70
2019-02-08T19:13:26.797Z,21.10
2019-02-08T19:15:58.184Z,21.23
2019-02-08T19:18:29.665Z,24.87
2019-02-08T19:21:01.135Z,22.37
2019-02-08T19:23:32.595Z,21.40
2019-02-08T19:26:04.136Z,18.83
2019-02-08T19:28:35.580Z,21.17
2019-02-08T19:31:07.066Z,198.97
2019-02-08T19:33:38.541Z,95.50
2019-02-08T19:36:10.013Z,35.00
2019-02-08T19:38:41.440Z,24.97
2019-02-08T19:41:12.823Z,24.33
2019-02-08T19:43:44.224Z,23.70
2019-02-08T19:46:16.046Z,25.23
2019-02-08T19:48:47.575Z,23.93
2019-02-08T19:51:19.107Z,24.80
2019-02-08T19:53:50.606Z,22.77
2019-02-08T19:56:22.153Z,24.17
2019-02-08T19:58:53.592Z,24.53
2019-02-08T20:01:25.110Z,26.00
2019-02-08T20:03:56.592Z,24.73
2019-02-08T20:06:28.088Z,24.87
2019-02-08T20:08:59.574Z,23.57
2019-02-08T20:11:31.030Z,22.13
2019-02-08T20:14:02.586Z,22.53
2019-02-08T20:16:34.096Z,24.83
2019-02-08T20:19:05.607Z,26.03
2019-02-08T20:21:37.025Z,25.00
2019-02-08T20:24:08.412Z,25.53
2019-02-08T20:26:39.791Z,29.40
2019-02-08T20:29:11.196Z,25.83
2019-02-08T20:31:42.584Z,27.50
2019-02-08T20:34:13.988Z,25.73
2019-02-08T20:36:45.428Z,25.37
2019-02-08T20:39:17.057Z,23.83
2019-02-08T20:41:48.519Z,22.90
2019-02-08T20:44:19.923Z,26.27
2019-02-08T20:46:51.318Z,26.13
2019-02-08T20:49:22.763Z,25.17
2019-02-08T20:51:54.220Z,27.37
2019-02-08T20:54:25.705Z,27.10
2019-02-08T20:56:58.933Z,29.13
2019-02-08T20:59:30.447Z,28.03
2019-02-08T21:02:01.898Z,27.27
2019-02-08T21:04:34.269Z,25.40
2019-02-08T21:07:06.059Z,25.37
2019-02-08T21:09:37.596Z,23.00
2019-02-08T21:12:09.101Z,22.77
2019-02-08T21:14:40.770Z,23.47
2019-02-08T21:17:12.258Z,23.87
2019-02-08T21:19:43.687Z,22.67
2019-02-08T21:22:15.139Z,21.10
2019-02-08T21:24:46.825Z,22.67
2019-02-08T21:27:19.128Z,21.27
2019-02-08T21:29:52.085Z,25.73
2019-02-08T21:32:23.696Z,27.17
2019-02-08T21:34:55.180Z,26.30
2019-02-08T21:37:26.582Z,25.43
2019-02-08T21:39:58.103Z,28.13
2019-02-08T21:42:29.495Z,29.13
2019-02-08T21:45:00.892Z,30.60
2019-02-08T21:47:32.295Z,30.27
2019-02-08T21:50:03.852Z,37.65
2019-02-08T21:52:35.330Z,33.77
2019-02-08T21:55:08.037Z,32.57
2019-02-08T21:57:39.493Z,30.30
2019-02-08T22:00:22.236Z,30.03
2019-02-08T22:02:53.702Z,31.60
2019-02-08T22:05:52.180Z,35.95
2019-02-08T22:08:23.673Z,32.33
2019-02-08T22:10:55.185Z,35.47
2019-02-08T22:13:26.562Z,32.23
2019-02-08T22:15:58.034Z,33.37
2019-02-08T22:18:29.457Z,32.33
2019-02-08T22:21:00.864Z,33.37
2019-02-08T22:23:32.284Z,33.57
2019-02-08T22:26:03.675Z,30.77
2019-02-08T22:28:35.094Z,32.40
2019-02-08T22:31:06.768Z,34.20
2019-02-08T22:33:38.208Z,33.77
2019-02-08T22:36:09.616Z,34.87
2019-02-08T22:38:41.140Z,34.80
2019-02-08T22:41:12.534Z,37.50
2019-02-08T22:43:43.967Z,35.23
2019-02-08T22:46:15.490Z,34.43
2019-02-08T22:48:46.897Z,35.23
2019-02-08T22:51:18.349Z,32.30
2019-02-08T22:53:50.087Z,32.53
2019-02-08T22:56:21.501Z,33.13
2019-02-08T22:58:53.921Z,32.90
2019-02-08T23:01:34.972Z,33.80
2019-02-08T23:04:10.613Z,33.50
2019-02-08T23:06:44.836Z,33.93
2019-02-08T23:09:20.568Z,34.03
2019-02-08T23:11:52.188Z,32.37
2019-02-08T23:14:23.663Z,32.80
2019-02-08T23:16:55.112Z,31.80
2019-02-08T23:19:26.777Z,34.83
2019-02-08T23:21:58.233Z,36.37
2019-02-08T23:24:29.650Z,34.63
2019-02-08T23:27:01.110Z,32.80
2019-02-08T23:29:32.476Z,33.23
2019-02-08T23:32:03.879Z,41.58
2019-02-08T23:34:35.270Z,37.87
2019-02-08T23:37:06.732Z,34.03
2019-02-08T23:39:38.137Z,31.60
2019-02-08T23:42:09.638Z,33.93
2019-02-08T23:44:41.054Z,32.07
2019-02-08T23:47:12.452Z,32.73
2019-02-08T23:49:43.896Z,31.70
2019-02-08T23:52:15.359Z,30.83
2019-02-08T23:54:47.103Z,31.63
2019-02-08T23:57:18.498Z,26.80
2019-02-08T23:59:49.873Z,24.20
